sensor_id;sensor_type;location;lat;lon;timestamp;pressure;altitude;pressure_sealevel;temperature
76583;BMP280;65462;52.148;7.940;2023-05-10T00:01:05;99904.06;;;15.66
76583;BMP280;65462;52.148;7.940;2023-05-10T00:03:30;99899.47;;;15.67
76583;BMP280;65462;52.148;7.940;2023-05-10T00:05:56;99894.13;;;15.67
76583;BMP280;65462;52.148;7.940;2023-05-10T00:08:21;99887.66;;;15.64
76583;BMP280;65462;52.148;7.940;2023-05-10T00:10:46;99892.97;;;15.64
76583;BMP280;65462;52.148;7.940;2023-05-10T00:13:11;99893.69;;;15.61
76583;BMP280;65462;52.148;7.940;2023-05-10T00:15:37;99896.00;;;15.59
76583;BMP280;65462;52.148;7.940;2023-05-10T00:18:02;99901.34;;;15.59
76583;BMP280;65462;52.148;7.940;2023-05-10T00:20:27;99896.00;;;15.59
76583;BMP280;65462;52.148;7.940;2023-05-10T00:22:53;99887.22;;;15.55
76583;BMP280;65462;52.148;7.940;2023-05-10T00:25:18;99892.16;;;15.53
76583;BMP280;65462;52.148;7.940;2023-05-10T00:27:43;99882.28;;;15.54
76583;BMP280;65462;52.148;7.940;2023-05-10T00:30:09;99875.03;;;15.54
76583;BMP280;65462;52.148;7.940;2023-05-10T00:32:34;99878.06;;;15.53
76583;BMP280;65462;52.148;7.940;2023-05-10T00:34:59;99892.91;;;15.50
76583;BMP280;65462;52.148;7.940;2023-05-10T00:37:25;99881.47;;;15.46
76583;BMP280;65462;52.148;7.940;2023-05-10T00:39:50;99879.91;;;15.42
76583;BMP280;65462;52.148;7.940;2023-05-10T00:42:15;99873.09;;;15.44
76583;BMP280;65462;52.148;7.940;2023-05-10T00:44:40;99884.47;;;15.45
76583;BMP280;65462;52.148;7.940;2023-05-10T00:47:06;99876.13;;;15.43
76583;BMP280;65462;52.148;7.940;2023-05-10T00:49:31;99870.75;;;15.39
76583;BMP280;65462;52.148;7.940;2023-05-10T00:51:57;99878.00;;;15.42
76583;BMP280;65462;52.148;7.940;2023-05-10T00:54:23;99874.16;;;15.36
76583;BMP280;65462;52.148;7.940;2023-05-10T00:56:48;99867.31;;;15.35
76583;BMP280;65462;52.148;7.940;2023-05-10T00:59:15;99879.50;;;15.36
76583;BMP280;65462;52.148;7.940;2023-05-10T01:01:42;99873.78;;;15.34
76583;BMP280;65462;52.148;7.940;2023-05-10T01:04:08;99868.81;;;15.33
76583;BMP280;65462;52.148;7.940;2023-05-10T01:06:35;99877.19;;;15.31
76583;BMP280;65462;52.148;7.940;2023-05-10T01:09:00;99877.19;;;15.31
76583;BMP280;65462;52.148;7.940;2023-05-10T01:11:25;99873.75;;;15.31
76583;BMP280;65462;52.148;7.940;2023-05-10T01:13:55;99873.75;;;15.27
76583;BMP280;65462;52.148;7.940;2023-05-10T01:16:22;99883.56;;;15.23
76583;BMP280;65462;52.148;7.940;2023-05-10T01:18:48;99882.06;;;15.22
76583;BMP280;65462;52.148;7.940;2023-05-10T01:21:45;99876.00;;;15.25
76583;BMP280;65462;52.148;7.940;2023-05-10T01:29:51;99875.94;;;15.18
76583;BMP280;65462;52.148;7.940;2023-05-10T01:32:34;99874.44;;;15.21
76583;BMP280;65462;52.148;7.940;2023-05-10T01:35:12;99879.78;;;15.21
76583;BMP280;65462;52.148;7.940;2023-05-10T01:37:46;99880.13;;;15.19
76583;BMP280;65462;52.148;7.940;2023-05-10T01:40:19;99889.63;;;15.17
76583;BMP280;65462;52.148;7.940;2023-05-10T01:42:53;99885.41;;;15.12
76583;BMP280;65462;52.148;7.940;2023-05-10T01:45:47;99893.00;;;15.10
76583;BMP280;65462;52.148;7.940;2023-05-10T01:48:14;99879.28;;;15.08
76583;BMP280;65462;52.148;7.940;2023-05-10T01:50:43;99881.22;;;15.11
76583;BMP280;65462;52.148;7.940;2023-05-10T01:53:10;99890.31;;;15.10
76583;BMP280;65462;52.148;7.940;2023-05-10T01:55:42;99884.19;;;15.06
76583;BMP280;65462;52.148;7.940;2023-05-10T01:58:10;99884.97;;;15.07
76583;BMP280;65462;52.148;7.940;2023-05-10T02:00:40;99875.84;;;15.04
76583;BMP280;65462;52.148;7.940;2023-05-10T02:03:08;99883.06;;;15.07
76583;BMP280;65462;52.148;7.940;2023-05-10T02:05:35;99888.38;;;15.07
76583;BMP280;65462;52.148;7.940;2023-05-10T02:08:03;99874.72;;;15.05
76583;BMP280;65462;52.148;7.940;2023-05-10T02:10:34;99882.69;;;15.05
76583;BMP280;65462;52.148;7.940;2023-05-10T02:13:02;99883.47;;;15.06
76583;BMP280;65462;52.148;7.940;2023-05-10T02:15:28;99881.16;;;15.04
76583;BMP280;65462;52.148;7.940;2023-05-10T02:17:55;99885.34;;;15.05
76583;BMP280;65462;52.148;7.940;2023-05-10T02:20:23;99891.81;;;15.04
76583;BMP280;65462;52.148;7.940;2023-05-10T02:22:50;99894.84;;;15.03
76583;BMP280;65462;52.148;7.940;2023-05-10T02:25:19;99897.84;;;15.01
76583;BMP280;65462;52.148;7.940;2023-05-10T02:27:46;99888.75;;;15.02
76583;BMP280;65462;52.148;7.940;2023-05-10T02:30:13;99895.88;;;14.95
76583;BMP280;65462;52.148;7.940;2023-05-10T02:32:38;99893.28;;;14.98
76583;BMP280;65462;52.148;7.940;2023-05-10T02:35:05;99898.19;;;14.96
76583;BMP280;65462;52.148;7.940;2023-05-10T02:37:31;99893.97;;;14.92
76583;BMP280;65462;52.148;7.940;2023-05-10T02:39:58;99901.59;;;14.93
76583;BMP280;65462;52.148;7.940;2023-05-10T02:42:27;99901.97;;;14.95
76583;BMP280;65462;52.148;7.940;2023-05-10T02:44:56;99911.50;;;14.96
76583;BMP280;65462;52.148;7.940;2023-05-10T02:47:26;99907.28;;;14.92
76583;BMP280;65462;52.148;7.940;2023-05-10T02:49:52;99912.56;;;14.88
76583;BMP280;65462;52.148;7.940;2023-05-10T02:52:22;99911.41;;;14.85
76583;BMP280;65462;52.148;7.940;2023-05-10T02:54:50;99913.63;;;14.80
76583;BMP280;65462;52.148;7.940;2023-05-10T02:57:17;99912.84;;;14.76
76583;BMP280;65462;52.148;7.940;2023-05-10T02:59:45;99912.75;;;14.69
76583;BMP280;65462;52.148;7.940;2023-05-10T03:02:12;99915.00;;;14.67
76583;BMP280;65462;52.148;7.940;2023-05-10T03:04:38;99908.88;;;14.63
76583;BMP280;65462;52.148;7.940;2023-05-10T03:07:03;99911.53;;;14.59
76583;BMP280;65462;52.148;7.940;2023-05-10T03:09:29;99911.88;;;14.58
76583;BMP280;65462;52.148;7.940;2023-05-10T03:12:15;99917.16;;;14.54
76583;BMP280;65462;52.148;7.940;2023-05-10T03:17:43;99926.22;;;14.50
76583;BMP280;65462;52.148;7.940;2023-05-10T03:20:12;99920.53;;;14.48
76583;BMP280;65462;52.148;7.940;2023-05-10T03:22:45;99926.13;;;14.43
76583;BMP280;65462;52.148;7.940;2023-05-10T03:25:12;99922.31;;;14.40
76583;BMP280;65462;52.148;7.940;2023-05-10T03:27:41;99927.97;;;14.39
76583;BMP280;65462;52.148;7.940;2023-05-10T03:30:08;99929.84;;;14.35
76583;BMP280;65462;52.148;7.940;2023-05-10T03:32:35;99935.47;;;14.30
76583;BMP280;65462;52.148;7.940;2023-05-10T03:35:06;99930.16;;;14.30
76583;BMP280;65462;52.148;7.940;2023-05-10T03:37:31;99935.84;;;14.28
76583;BMP280;65462;52.148;7.940;2023-05-10T03:39:56;99935.84;;;14.28
76583;BMP280;65462;52.148;7.940;2023-05-10T03:42:21;99944.94;;;14.27
76583;BMP280;65462;52.148;7.940;2023-05-10T03:44:47;99942.63;;;14.26
76583;BMP280;65462;52.148;7.940;2023-05-10T03:47:14;99945.19;;;14.19
76583;BMP280;65462;52.148;7.940;2023-05-10T03:49:39;99948.59;;;14.16
76583;BMP280;65462;52.148;7.940;2023-05-10T03:52:04;99949.28;;;14.13
76583;BMP280;65462;52.148;7.940;2023-05-10T03:54:30;99957.66;;;14.15
76583;BMP280;65462;52.148;7.940;2023-05-10T03:56:55;99953.38;;;14.06
76583;BMP280;65462;52.148;7.940;2023-05-10T03:59:20;99956.00;;;14.03
76583;BMP280;65462;52.148;7.940;2023-05-10T04:01:46;99958.63;;;13.99
76583;BMP280;65462;52.148;7.940;2023-05-10T04:04:11;99957.53;;;14.04
76583;BMP280;65462;52.148;7.940;2023-05-10T04:06:37;99962.00;;;13.96
76583;BMP280;65462;52.148;7.940;2023-05-10T04:09:03;99957.09;;;13.98
76583;BMP280;65462;52.148;7.940;2023-05-10T04:11:29;99962.41;;;13.98
76583;BMP280;65462;52.148;7.940;2023-05-10T04:13:55;99971.84;;;13.96
76583;BMP280;65462;52.148;7.940;2023-05-10T04:16:20;99968.81;;;13.97
76583;BMP280;65462;52.148;7.940;2023-05-10T04:18:45;99966.59;;;13.99
76583;BMP280;65462;52.148;7.940;2023-05-10T04:21:14;99969.25;;;13.99
76583;BMP280;65462;52.148;7.940;2023-05-10T04:23:39;99979.41;;;13.94
76583;BMP280;65462;52.148;7.940;2023-05-10T04:26:05;99979.75;;;13.92
76583;BMP280;65462;52.148;7.940;2023-05-10T04:28:30;99983.13;;;13.89
76583;BMP280;65462;52.148;7.940;2023-05-10T04:33:28;99989.94;;;13.87
76583;BMP280;65462;52.148;7.940;2023-05-10T04:35:53;99983.50;;;13.88
76583;BMP280;65462;52.148;7.940;2023-05-10T04:38:18;99991.06;;;13.86
76583;BMP280;65462;52.148;7.940;2023-05-10T04:40:44;99992.97;;;13.89
76583;BMP280;65462;52.148;7.940;2023-05-10T04:43:09;99993.72;;;13.86
76583;BMP280;65462;52.148;7.940;2023-05-10T04:45:34;99985.72;;;13.86
76583;BMP280;65462;52.148;7.940;2023-05-10T04:48:00;99988.69;;;13.81
76583;BMP280;65462;52.148;7.940;2023-05-10T04:50:25;99990.59;;;13.80
76583;BMP280;65462;52.148;7.940;2023-05-10T04:52:50;100000.91;;;13.85
76583;BMP280;65462;52.148;7.940;2023-05-10T04:55:16;99999.44;;;13.88
76583;BMP280;65462;52.148;7.940;2023-05-10T04:57:41;99996.81;;;13.91
76583;BMP280;65462;52.148;7.940;2023-05-10T05:00:07;100003.22;;;13.90
76583;BMP280;65462;52.148;7.940;2023-05-10T05:02:32;100009.97;;;13.84
76583;BMP280;65462;52.148;7.940;2023-05-10T05:04:58;100012.63;;;13.84
76583;BMP280;65462;52.148;7.940;2023-05-10T05:07:23;100020.59;;;13.84
76583;BMP280;65462;52.148;7.940;2023-05-10T05:09:48;100022.56;;;13.87
76583;BMP280;65462;52.148;7.940;2023-05-10T05:12:13;100022.59;;;13.91
76583;BMP280;65462;52.148;7.940;2023-05-10T05:14:40;100031.66;;;13.86
76583;BMP280;65462;52.148;7.940;2023-05-10T05:17:06;100023.69;;;13.86
76583;BMP280;65462;52.148;7.940;2023-05-10T05:19:31;100026.28;;;13.83
76583;BMP280;65462;52.148;7.940;2023-05-10T05:21:56;100027.13;;;13.87
76583;BMP280;65462;52.148;7.940;2023-05-10T05:24:22;100035.75;;;13.80
76583;BMP280;65462;52.148;7.940;2023-05-10T05:26:47;100039.19;;;13.84
76583;BMP280;65462;52.148;7.940;2023-05-10T05:29:12;100038.50;;;13.87
76583;BMP280;65462;52.148;7.940;2023-05-10T05:31:37;100033.88;;;13.84
76583;BMP280;65462;52.148;7.940;2023-05-10T05:34:03;100038.53;;;13.91
76583;BMP280;65462;52.148;7.940;2023-05-10T05:36:28;100051.47;;;13.92
76583;BMP280;65462;52.148;7.940;2023-05-10T05:38:53;100049.88;;;13.88
76583;BMP280;65462;52.148;7.940;2023-05-10T05:41:18;100059.72;;;13.87
76583;BMP280;65462;52.148;7.940;2023-05-10T05:43:44;100050.16;;;13.83
76583;BMP280;65462;52.148;7.940;2023-05-10T05:46:10;100048.28;;;13.83
76583;BMP280;65462;52.148;7.940;2023-05-10T05:48:35;100049.81;;;13.84
76583;BMP280;65462;52.148;7.940;2023-05-10T05:51:00;100061.97;;;13.85
76583;BMP280;65462;52.148;7.940;2023-05-10T05:53:26;100059.72;;;13.87
76583;BMP280;65462;52.148;7.940;2023-05-10T05:55:56;100061.25;;;13.88
76583;BMP280;65462;52.148;7.940;2023-05-10T05:58:23;100070.28;;;13.84
76583;BMP280;65462;52.148;7.940;2023-05-10T06:00:48;100072.94;;;13.84
76583;BMP280;65462;52.148;7.940;2023-05-10T06:03:14;100071.06;;;13.84
76583;BMP280;65462;52.148;7.940;2023-05-10T06:05:39;100066.97;;;13.90
76583;BMP280;65462;52.148;7.940;2023-05-10T06:08:05;100074.28;;;13.97
76583;BMP280;65462;52.148;7.940;2023-05-10T06:10:30;100075.06;;;13.97
76583;BMP280;65462;52.148;7.940;2023-05-10T06:12:55;100078.91;;;14.00
76583;BMP280;65462;52.148;7.940;2023-05-10T06:15:21;100071.31;;;13.98
76583;BMP280;65462;52.148;7.940;2023-05-10T06:17:46;100074.28;;;13.97
76583;BMP280;65462;52.148;7.940;2023-05-10T06:20:14;100076.53;;;13.95
76583;BMP280;65462;52.148;7.940;2023-05-10T06:22:40;100082.22;;;13.93
76583;BMP280;65462;52.148;7.940;2023-05-10T06:25:05;100077.72;;;13.97
76583;BMP280;65462;52.148;7.940;2023-05-10T06:27:31;100080.75;;;13.96
76583;BMP280;65462;52.148;7.940;2023-05-10T06:29:56;100083.03;;;13.97
76583;BMP280;65462;52.148;7.940;2023-05-10T06:32:21;100085.69;;;13.97
76583;BMP280;65462;52.148;7.940;2023-05-10T06:34:47;100081.94;;;13.98
76583;BMP280;65462;52.148;7.940;2023-05-10T06:37:12;100080.44;;;14.01
76583;BMP280;65462;52.148;7.940;2023-05-10T06:39:37;100088.84;;;14.03
76583;BMP280;65462;52.148;7.940;2023-05-10T06:42:03;100093.38;;;14.02
76583;BMP280;65462;52.148;7.940;2023-05-10T06:44:29;100095.69;;;14.04
76583;BMP280;65462;52.148;7.940;2023-05-10T06:46:54;100100.25;;;14.07
76583;BMP280;65462;52.148;7.940;2023-05-10T06:49:21;100109.41;;;14.10
76583;BMP280;65462;52.148;7.940;2023-05-10T06:51:46;100109.09;;;14.11
76583;BMP280;65462;52.148;7.940;2023-05-10T06:54:11;100104.53;;;14.12
76583;BMP280;65462;52.148;7.940;2023-05-10T06:56:36;100103.00;;;14.11
76583;BMP280;65462;52.148;7.940;2023-05-10T06:59:02;100107.91;;;14.09
76583;BMP280;65462;52.148;7.940;2023-05-10T07:01:27;100112.50;;;14.12
76583;BMP280;65462;52.148;7.940;2023-05-10T07:03:53;100111.78;;;14.15
76583;BMP280;65462;52.148;7.940;2023-05-10T07:06:18;100108.44;;;14.18
76583;BMP280;65462;52.148;7.940;2023-05-10T07:08:43;100113.75;;;14.18
76583;BMP280;65462;52.148;7.940;2023-05-10T07:11:09;100105.41;;;14.19
76583;BMP280;65462;52.148;7.940;2023-05-10T07:13:35;100100.13;;;14.23
76583;BMP280;65462;52.148;7.940;2023-05-10T07:16:01;100101.41;;;14.29
76583;BMP280;65462;52.148;7.940;2023-05-10T07:18:27;100100.75;;;14.35
76583;BMP280;65462;52.148;7.940;2023-05-10T07:20:52;100115.59;;;14.40
76583;BMP280;65462;52.148;7.940;2023-05-10T07:23:18;100109.53;;;14.43
76583;BMP280;65462;52.148;7.940;2023-05-10T07:25:47;100118.69;;;14.45
76583;BMP280;65462;52.148;7.940;2023-05-10T07:28:14;100115.31;;;14.45
76583;BMP280;65462;52.148;7.940;2023-05-10T07:30:39;100126.03;;;14.52
76583;BMP280;65462;52.148;7.940;2023-05-10T07:33:05;100123.34;;;14.52
76583;BMP280;65462;52.148;7.940;2023-05-10T07:35:30;100125.28;;;14.55
76583;BMP280;65462;52.148;7.940;2023-05-10T07:37:55;100127.25;;;14.58
76583;BMP280;65462;52.148;7.940;2023-05-10T07:40:21;100125.75;;;14.60
76583;BMP280;65462;52.148;7.940;2023-05-10T07:42:46;100126.56;;;14.64
76583;BMP280;65462;52.148;7.940;2023-05-10T07:45:11;100134.59;;;14.68
76583;BMP280;65462;52.148;7.940;2023-05-10T07:47:37;100136.16;;;14.69
76583;BMP280;65462;52.148;7.940;2023-05-10T07:50:02;100135.03;;;14.70
76583;BMP280;65462;52.148;7.940;2023-05-10T07:52:27;100130.50;;;14.70
76583;BMP280;65462;52.148;7.940;2023-05-10T07:54:53;100139.63;;;14.73
76583;BMP280;65462;52.148;7.940;2023-05-10T07:57:18;100139.25;;;14.74
76583;BMP280;65462;52.148;7.940;2023-05-10T07:59:43;100146.16;;;14.79
76583;BMP280;65462;52.148;7.940;2023-05-10T08:02:10;100137.84;;;14.84
76583;BMP280;65462;52.148;7.940;2023-05-10T08:04:35;100140.22;;;14.89
76583;BMP280;65462;52.148;7.940;2023-05-10T08:07:00;100144.47;;;14.94
76583;BMP280;65462;52.148;7.940;2023-05-10T08:09:25;100147.19;;;15.01
76583;BMP280;65462;52.148;7.940;2023-05-10T08:11:51;100145.41;;;15.08
76583;BMP280;65462;52.148;7.940;2023-05-10T08:14:16;100145.06;;;15.13
76583;BMP280;65462;52.148;7.940;2023-05-10T08:16:42;100148.94;;;15.19
76583;BMP280;65462;52.148;7.940;2023-05-10T08:19:07;100148.22;;;15.22
76583;BMP280;65462;52.148;7.940;2023-05-10T08:21:32;100146.78;;;15.28
76583;BMP280;65462;52.148;7.940;2023-05-10T08:23:58;100157.88;;;15.34
76583;BMP280;65462;52.148;7.940;2023-05-10T08:26:23;100155.56;;;15.32
76583;BMP280;65462;52.148;7.940;2023-05-10T08:28:48;100154.41;;;15.30
76583;BMP280;65462;52.148;7.940;2023-05-10T08:31:15;100163.56;;;15.32
76583;BMP280;65462;52.148;7.940;2023-05-10T08:33:40;100159.78;;;15.33
76583;BMP280;65462;52.148;7.940;2023-05-10T08:36:06;100161.38;;;15.38
76583;BMP280;65462;52.148;7.940;2023-05-10T08:38:31;100161.38;;;15.38
76583;BMP280;65462;52.148;7.940;2023-05-10T08:40:57;100171.28;;;15.41
76583;BMP280;65462;52.148;7.940;2023-05-10T08:43:29;100171.69;;;15.43
76583;BMP280;65462;52.148;7.940;2023-05-10T08:45:55;100175.16;;;15.47
76583;BMP280;65462;52.148;7.940;2023-05-10T08:48:24;100174.78;;;15.48
76583;BMP280;65462;52.148;7.940;2023-05-10T08:50:52;100175.56;;;15.49
76583;BMP280;65462;52.148;7.940;2023-05-10T08:53:18;100172.88;;;15.49
76583;BMP280;65462;52.148;7.940;2023-05-10T08:55:44;100177.47;;;15.52
76583;BMP280;65462;52.148;7.940;2023-05-10T08:58:10;100181.69;;;15.53
76583;BMP280;65462;52.148;7.940;2023-05-10T09:00:36;100180.59;;;15.57
76583;BMP280;65462;52.148;7.940;2023-05-10T09:03:04;100187.47;;;15.62
76583;BMP280;65462;52.148;7.940;2023-05-10T09:05:30;100178.78;;;15.68
76583;BMP280;65462;52.148;7.940;2023-05-10T09:07:56;100177.69;;;15.73
76583;BMP280;65462;52.148;7.940;2023-05-10T09:10:21;100186.53;;;15.81
76583;BMP280;65462;52.148;7.940;2023-05-10T09:12:48;100190.41;;;15.87
76583;BMP280;65462;52.148;7.940;2023-05-10T09:15:16;100180.56;;;15.94
76583;BMP280;65462;52.148;7.940;2023-05-10T09:17:44;100187.84;;;16.01
76583;BMP280;65462;52.148;7.940;2023-05-10T09:20:10;100193.28;;;16.08
76583;BMP280;65462;52.148;7.940;2023-05-10T09:22:35;100190.25;;;16.13
76583;BMP280;65462;52.148;7.940;2023-05-10T09:25:09;100198.69;;;16.18
76583;BMP280;65462;52.148;7.940;2023-05-10T09:27:36;100198.72;;;16.22
76583;BMP280;65462;52.148;7.940;2023-05-10T09:30:03;100197.22;;;16.24
76583;BMP280;65462;52.148;7.940;2023-05-10T09:32:41;100199.53;;;16.29
76583;BMP280;65462;52.148;7.940;2023-05-10T09:35:14;100205.66;;;16.30
76583;BMP280;65462;52.148;7.940;2023-05-10T09:37:40;100212.50;;;16.31
76583;BMP280;65462;52.148;7.940;2023-05-10T09:40:13;100212.91;;;16.33
76583;BMP280;65462;52.148;7.940;2023-05-10T09:42:51;100216.34;;;16.37
76583;BMP280;65462;52.148;7.940;2023-05-10T09:45:16;100214.09;;;16.39
76583;BMP280;65462;52.148;7.940;2023-05-10T09:47:41;100218.66;;;16.42
76583;BMP280;65462;52.148;7.940;2023-05-10T09:50:07;100215.22;;;16.41
76583;BMP280;65462;52.148;7.940;2023-05-10T09:52:46;100223.28;;;16.45
76583;BMP280;65462;52.148;7.940;2023-05-10T09:55:12;100221.38;;;16.45
76583;BMP280;65462;52.148;7.940;2023-05-10T09:57:38;100216.44;;;16.44
76583;BMP280;65462;52.148;7.940;2023-05-10T10:00:04;100220.28;;;16.50
76583;BMP280;65462;52.148;7.940;2023-05-10T10:02:30;100217.25;;;16.55
76583;BMP280;65462;52.148;7.940;2023-05-10T10:04:56;100219.59;;;16.60
76583;BMP280;65462;52.148;7.940;2023-05-10T10:07:23;100221.91;;;16.69
76583;BMP280;65462;52.148;7.940;2023-05-10T10:09:49;100220.44;;;16.78
76583;BMP280;65462;52.148;7.940;2023-05-10T10:12:14;100215.97;;;16.93
76583;BMP280;65462;52.148;7.940;2023-05-10T10:14:40;100222.13;;;17.04
76583;BMP280;65462;52.148;7.940;2023-05-10T10:17:05;100229.03;;;17.08
76583;BMP280;65462;52.148;7.940;2023-05-10T10:19:33;100219.13;;;17.16
76583;BMP280;65462;52.148;7.940;2023-05-10T10:22:00;100213.81;;;17.19
76583;BMP280;65462;52.148;7.940;2023-05-10T10:24:25;100223.38;;;17.24
76583;BMP280;65462;52.148;7.940;2023-05-10T10:26:52;100226.78;;;17.31
76583;BMP280;65462;52.148;7.940;2023-05-10T10:29:23;100219.19;;;17.30
76583;BMP280;65462;52.148;7.940;2023-05-10T10:32:20;100223.03;;;17.39
76583;BMP280;65462;52.148;7.940;2023-05-10T10:34:47;100225.34;;;17.44
76583;BMP280;65462;52.148;7.940;2023-05-10T10:37:12;100221.53;;;17.49
76583;BMP280;65462;52.148;7.940;2023-05-10T10:39:38;100220.81;;;17.56
76583;BMP280;65462;52.148;7.940;2023-05-10T10:42:04;100216.59;;;17.62
76583;BMP280;65462;52.148;7.940;2023-05-10T10:52:34;100228.50;;;17.75
76583;BMP280;65462;52.148;7.940;2023-05-10T10:57:53;100227.38;;;17.83
76583;BMP280;65462;52.148;7.940;2023-05-10T11:00:28;100228.09;;;17.83
76583;BMP280;65462;52.148;7.940;2023-05-10T11:03:03;100234.22;;;17.87
76583;BMP280;65462;52.148;7.940;2023-05-10T11:05:45;100229.28;;;17.89
76583;BMP280;65462;52.148;7.940;2023-05-10T11:08:26;100231.56;;;17.91
76583;BMP280;65462;52.148;7.940;2023-05-10T11:11:14;100229.25;;;17.96
76583;BMP280;65462;52.148;7.940;2023-05-10T11:13:45;100237.31;;;18.10
76583;BMP280;65462;52.148;7.940;2023-05-10T11:16:24;100240.00;;;18.21
76583;BMP280;65462;52.148;7.940;2023-05-10T11:19:11;100231.56;;;18.33
76583;BMP280;65462;52.148;7.940;2023-05-10T11:24:23;100231.56;;;18.54
76583;BMP280;65462;52.148;7.940;2023-05-10T11:26:53;100238.44;;;18.62
76583;BMP280;65462;52.148;7.940;2023-05-10T11:29:18;100240.34;;;18.72
76583;BMP280;65462;52.148;7.940;2023-05-10T11:31:44;100231.88;;;18.81
76583;BMP280;65462;52.148;7.940;2023-05-10T11:34:10;100236.81;;;18.93
76583;BMP280;65462;52.148;7.940;2023-05-10T11:36:36;100240.25;;;19.04
76583;BMP280;65462;52.148;7.940;2023-05-10T11:39:03;100235.97;;;19.20
76583;BMP280;65462;52.148;7.940;2023-05-10T11:41:29;100243.94;;;19.31
76583;BMP280;65462;52.148;7.940;2023-05-10T11:43:56;100235.84;;;19.42
76583;BMP280;65462;52.148;7.940;2023-05-10T11:46:26;100235.41;;;19.50
76583;BMP280;65462;52.148;7.940;2023-05-10T11:48:58;100255.63;;;19.65
76583;BMP280;65462;52.148;7.940;2023-05-10T11:51:25;100251.03;;;19.66
76583;BMP280;65462;52.148;7.940;2023-05-10T11:53:54;100248.28;;;19.73
76583;BMP280;65462;52.148;7.940;2023-05-10T11:56:19;100258.63;;;19.78
76583;BMP280;65462;52.148;7.940;2023-05-10T11:58:49;100252.13;;;19.79
76583;BMP280;65462;52.148;7.940;2023-05-10T12:01:16;100256.31;;;19.76
76583;BMP280;65462;52.148;7.940;2023-05-10T12:03:42;100256.75;;;19.68
76583;BMP280;65462;52.148;7.940;2023-05-10T12:06:07;100258.72;;;19.60
76583;BMP280;65462;52.148;7.940;2023-05-10T12:08:32;100260.28;;;19.51
76583;BMP280;65462;52.148;7.940;2023-05-10T12:11:06;100254.22;;;19.47
76583;BMP280;65462;52.148;7.940;2023-05-10T12:13:31;100263.44;;;19.38
76583;BMP280;65462;52.148;7.940;2023-05-10T12:15:58;100271.13;;;19.29
76583;BMP280;65462;52.148;7.940;2023-05-10T12:18:24;100262.75;;;19.20
76583;BMP280;65462;52.148;7.940;2023-05-10T12:20:52;100266.63;;;19.09
76583;BMP280;65462;52.148;7.940;2023-05-10T12:23:19;100265.09;;;19.01
76583;BMP280;65462;52.148;7.940;2023-05-10T12:25:45;100270.81;;;19.06
76583;BMP280;65462;52.148;7.940;2023-05-10T12:28:10;100271.59;;;19.03
76583;BMP280;65462;52.148;7.940;2023-05-10T12:30:36;100272.00;;;18.98
76583;BMP280;65462;52.148;7.940;2023-05-10T12:35:46;100270.50;;;18.90
76583;BMP280;65462;52.148;7.940;2023-05-10T12:38:39;100277.38;;;18.91
76583;BMP280;65462;52.148;7.940;2023-05-10T12:41:10;100276.63;;;18.94
76583;BMP280;65462;52.148;7.940;2023-05-10T12:43:36;100279.66;;;18.96
76583;BMP280;65462;52.148;7.940;2023-05-10T12:48:30;100278.84;;;19.10
76583;BMP280;65462;52.148;7.940;2023-05-10T12:50:56;100284.19;;;19.13
76583;BMP280;65462;52.148;7.940;2023-05-10T12:53:21;100291.88;;;19.11
76583;BMP280;65462;52.148;7.940;2023-05-10T12:55:47;100291.47;;;19.13
76583;BMP280;65462;52.148;7.940;2023-05-10T12:58:12;100291.09;;;19.14
76583;BMP280;65462;52.148;7.940;2023-05-10T13:00:37;100289.56;;;19.13
76583;BMP280;65462;52.148;7.940;2023-05-10T13:03:06;100296.47;;;19.11
76583;BMP280;65462;52.148;7.940;2023-05-10T13:05:32;100295.72;;;19.07
76583;BMP280;65462;52.148;7.940;2023-05-10T13:07:58;100293.03;;;19.03
76583;BMP280;65462;52.148;7.940;2023-05-10T13:10:23;100296.47;;;19.00
76583;BMP280;65462;52.148;7.940;2023-05-10T13:12:49;100292.69;;;18.94
76583;BMP280;65462;52.148;7.940;2023-05-10T13:15:14;100290.38;;;18.89
76583;BMP280;65462;52.148;7.940;2023-05-10T13:17:39;100294.22;;;18.88
76583;BMP280;65462;52.148;7.940;2023-05-10T13:20:06;100298.47;;;18.86
76583;BMP280;65462;52.148;7.940;2023-05-10T13:22:31;100296.91;;;18.81
76583;BMP280;65462;52.148;7.940;2023-05-10T13:24:56;100295.00;;;18.78
76583;BMP280;65462;52.148;7.940;2023-05-10T13:27:22;100292.72;;;18.77
76583;BMP280;65462;52.148;7.940;2023-05-10T13:29:47;100298.06;;;18.77
76583;BMP280;65462;52.148;7.940;2023-05-10T13:32:12;100302.66;;;18.76
76583;BMP280;65462;52.148;7.940;2023-05-10T13:34:37;100300.72;;;18.73
76583;BMP280;65462;52.148;7.940;2023-05-10T13:37:02;100310.72;;;18.73
76583;BMP280;65462;52.148;7.940;2023-05-10T13:39:28;100313.41;;;18.73
76583;BMP280;65462;52.148;7.940;2023-05-10T13:41:58;100308.78;;;18.70
76583;BMP280;65462;52.148;7.940;2023-05-10T13:44:23;100308.03;;;18.69
76583;BMP280;65462;52.148;7.940;2023-05-10T13:46:48;100304.97;;;18.67
76583;BMP280;65462;52.148;7.940;2023-05-10T13:49:14;100313.38;;;18.69
76583;BMP280;65462;52.148;7.940;2023-05-10T13:51:39;100314.16;;;18.66
76583;BMP280;65462;52.148;7.940;2023-05-10T13:54:04;100305.72;;;18.64
76583;BMP280;65462;52.148;7.940;2023-05-10T13:56:30;100308.38;;;18.61
76583;BMP280;65462;52.148;7.940;2023-05-10T13:58:56;100314.13;;;18.59
76583;BMP280;65462;52.148;7.940;2023-05-10T14:01:23;100314.13;;;18.56
76583;BMP280;65462;52.148;7.940;2023-05-10T14:03:48;100318.72;;;18.52
76583;BMP280;65462;52.148;7.940;2023-05-10T14:06:13;100313.38;;;18.48
76583;BMP280;65462;52.148;7.940;2023-05-10T14:08:39;100309.19;;;18.40
76583;BMP280;65462;52.148;7.940;2023-05-10T14:11:05;100302.69;;;18.34
76583;BMP280;65462;52.148;7.940;2023-05-10T14:13:30;100301.50;;;18.28
76583;BMP280;65462;52.148;7.940;2023-05-10T14:15:55;100301.53;;;18.24
76583;BMP280;65462;52.148;7.940;2023-05-10T14:18:21;100299.63;;;18.21
76583;BMP280;65462;52.148;7.940;2023-05-10T14:20:46;100302.66;;;18.20
76583;BMP280;65462;52.148;7.940;2023-05-10T14:23:12;100288.16;;;18.21
76583;BMP280;65462;52.148;7.940;2023-05-10T14:25:39;100301.13;;;18.19
76583;BMP280;65462;52.148;7.940;2023-05-10T14:28:05;100304.22;;;18.17
76583;BMP280;65462;52.148;7.940;2023-05-10T14:30:31;100309.56;;;18.17